createdAt,value
2022-09-07T00:01:08.640Z,7.40
2022-09-07T00:06:12.934Z,7.18
2022-09-07T00:11:18.045Z,7.45
2022-09-07T00:16:23.286Z,7.35
2022-09-07T00:21:25.829Z,7.53
2022-09-07T00:26:29.831Z,8.60
2022-09-07T00:31:32.316Z,8.50
2022-09-07T00:36:34.494Z,8.55
2022-09-07T00:41:36.629Z,7.57
2022-09-07T00:46:38.805Z,8.53
2022-09-07T00:51:46.067Z,8.70
2022-09-07T00:56:50.031Z,8.07
2022-09-07T01:01:53.122Z,8.48
2022-09-07T01:06:56.206Z,8.88
2022-09-07T01:12:00.775Z,8.30
2022-09-07T01:17:34.884Z,7.93
2022-09-07T01:22:54.406Z,9.95
2022-09-07T01:28:08.498Z,10.25
2022-09-07T01:33:27.619Z,10.68
2022-09-07T01:38:42.899Z,12.40
2022-09-07T01:43:50.927Z,13.90
2022-09-07T01:48:56.834Z,16.13
2022-09-07T01:54:07.799Z,19.98
2022-09-07T01:59:25.019Z,18.02
2022-09-07T02:04:35.827Z,18.27
2022-09-07T02:09:44.067Z,19.45
2022-09-07T02:14:57.259Z,18.60
2022-09-07T02:20:08.855Z,19.20
2022-09-07T02:25:16.308Z,18.85
2022-09-07T02:30:18.527Z,19.05
2022-09-07T02:35:20.926Z,19.50
2022-09-07T02:40:23.083Z,19.30
2022-09-07T02:45:25.795Z,20.10
2022-09-07T02:50:46.801Z,19.17
2022-09-07T02:56:07.634Z,18.33
2022-09-07T03:01:26.361Z,19.92
2022-09-07T03:06:47.853Z,19.45
2022-09-07T03:11:50.691Z,22.00
2022-09-07T03:16:56.383Z,22.80
2022-09-07T03:21:58.629Z,23.08
2022-09-07T03:27:01.047Z,22.93
2022-09-07T03:32:03.278Z,25.60
2022-09-07T03:37:05.520Z,22.87
2022-09-07T03:42:07.739Z,26.20
2022-09-07T03:47:09.979Z,24.53
2022-09-07T03:52:12.213Z,25.47
2022-09-07T03:57:14.324Z,24.97
2022-09-07T04:02:16.774Z,24.80
2022-09-07T04:07:18.973Z,26.85
2022-09-07T04:12:21.120Z,24.53
2022-09-07T04:17:23.222Z,26.40
2022-09-07T04:22:25.403Z,27.67
2022-09-07T04:27:27.583Z,26.77
2022-09-07T04:32:29.696Z,27.63
2022-09-07T04:37:31.862Z,27.23
2022-09-07T04:42:34.530Z,26.47
2022-09-07T04:47:36.727Z,29.10
2022-09-07T04:52:38.906Z,28.07
2022-09-07T04:57:41.017Z,26.70
2022-09-07T05:02:43.410Z,29.02
2022-09-07T05:07:45.599Z,29.47
2022-09-07T05:12:47.897Z,31.33
2022-09-07T05:17:50.035Z,29.90
2022-09-07T05:22:55.044Z,30.77
2022-09-07T05:27:57.295Z,30.88
2022-09-07T05:32:59.469Z,32.20
2022-09-07T05:38:01.666Z,29.53
2022-09-07T05:43:03.794Z,31.60
2022-09-07T05:48:05.917Z,32.37
2022-09-07T05:53:08.046Z,32.10
2022-09-07T05:58:10.174Z,30.85
2022-09-07T06:03:12.465Z,33.00
2022-09-07T06:08:14.790Z,31.02
2022-09-07T06:13:16.905Z,32.00
2022-09-07T06:18:19.057Z,32.10
2022-09-07T06:23:21.195Z,31.63
2022-09-07T06:28:34.458Z,33.27
2022-09-07T06:33:36.621Z,32.38
2022-09-07T06:38:39.838Z,32.13
2022-09-07T06:43:45.590Z,29.27
2022-09-07T06:48:48.411Z,25.95
2022-09-07T06:53:51.092Z,24.13
2022-09-07T07:03:56.181Z,19.15
2022-09-07T07:08:58.394Z,20.30
2022-09-07T07:14:00.567Z,21.08
2022-09-07T07:19:02.745Z,19.65
2022-09-07T07:24:08.099Z,20.23
2022-09-07T07:29:10.518Z,19.77
2022-09-07T07:34:15.809Z,19.27
2022-09-07T07:44:40.066Z,18.05
2022-09-07T07:49:42.162Z,17.43
2022-09-07T07:54:44.509Z,16.00
2022-09-07T07:59:46.642Z,14.52
2022-09-07T08:04:48.972Z,14.77
2022-09-07T08:09:51.140Z,13.32
2022-09-07T08:14:53.237Z,13.53
2022-09-07T08:19:55.390Z,12.80
2022-09-07T08:24:57.515Z,14.10
2022-09-07T08:30:00.243Z,13.33
2022-09-07T08:35:02.476Z,14.45
2022-09-07T08:40:04.974Z,14.55
2022-09-07T08:45:17.163Z,14.50
2022-09-07T08:50:40.696Z,15.50
2022-09-07T08:55:58.392Z,13.15
2022-09-07T09:06:46.854Z,15.15
2022-09-07T09:12:06.015Z,14.48
2022-09-07T09:17:16.035Z,14.05
2022-09-07T09:22:21.544Z,14.60
2022-09-07T09:27:23.691Z,15.73
2022-09-07T09:32:33.199Z,14.45
2022-09-07T09:37:37.002Z,14.90
2022-09-07T09:42:39.169Z,16.48
2022-09-07T09:47:41.389Z,15.95
2022-09-07T09:52:51.641Z,15.43
2022-09-07T10:09:00.333Z,16.48
2022-09-07T10:14:02.573Z,15.45
2022-09-07T10:19:04.774Z,14.13
2022-09-07T10:24:06.831Z,13.70
2022-09-07T10:29:29.209Z,10.35
2022-09-07T10:34:57.427Z,9.48
2022-09-07T10:40:20.896Z,9.95
2022-09-07T10:50:48.453Z,10.80
2022-09-07T10:56:05.452Z,12.88
2022-09-07T11:01:14.650Z,12.10
2022-09-07T11:06:21.977Z,11.05
2022-09-07T11:12:02.039Z,10.30
2022-09-07T11:17:25.795Z,7.72
2022-09-07T11:22:41.545Z,6.60
2022-09-07T11:28:28.014Z,6.05
2022-09-07T11:39:22.088Z,5.65
2022-09-07T11:44:31.416Z,4.57
2022-09-07T11:49:37.438Z,5.30
2022-09-07T12:00:23.608Z,5.15
2022-09-07T12:06:09.803Z,6.55
2022-09-07T12:11:31.320Z,6.53
2022-09-07T12:16:42.643Z,7.70
2022-09-07T12:21:53.714Z,6.10
2022-09-07T12:26:56.665Z,4.40
2022-09-07T12:32:52.576Z,5.35
2022-09-07T12:37:26.153Z,5.35
2022-09-07T12:42:33.114Z,5.63
2022-09-07T12:47:36.211Z,5.85
2022-09-07T12:52:54.224Z,4.00
2022-09-07T12:57:59.218Z,4.40
2022-09-07T13:09:32.584Z,4.70
2022-09-07T13:14:38.444Z,4.30
2022-09-07T13:19:46.634Z,4.05
2022-09-07T13:24:50.456Z,2.80
2022-09-07T13:29:57.378Z,2.78
2022-09-07T13:35:02.241Z,2.60
2022-09-07T13:40:10.431Z,2.70
2022-09-07T13:45:46.115Z,2.13
2022-09-07T13:50:48.289Z,2.30
2022-09-07T13:56:02.073Z,2.13
2022-09-07T14:01:14.468Z,2.10
2022-09-07T14:11:37.871Z,1.77
2022-09-07T14:16:42.834Z,2.00
2022-09-07T14:21:54.291Z,1.58
2022-09-07T14:26:56.821Z,1.90
2022-09-07T14:32:01.824Z,1.58
2022-09-07T14:37:07.726Z,2.00
2022-09-07T14:42:12.408Z,1.58
2022-09-07T14:47:32.874Z,1.20
2022-09-07T14:52:43.312Z,1.50
2022-09-07T14:58:15.046Z,1.70
2022-09-07T15:03:29.082Z,1.50
2022-09-07T15:08:40.297Z,1.67
2022-09-07T15:13:45.047Z,1.27
2022-09-07T15:18:49.666Z,1.60
2022-09-07T15:23:53.447Z,2.30
2022-09-07T15:29:12.407Z,2.42
2022-09-07T15:34:19.659Z,2.35
2022-09-07T15:39:25.374Z,2.38
2022-09-07T15:44:28.563Z,2.47
2022-09-07T15:49:30.815Z,2.70
2022-09-07T15:59:38.561Z,2.88
2022-09-07T16:04:40.958Z,2.22
2022-09-07T16:09:43.222Z,2.10
2022-09-07T16:14:45.357Z,2.42
2022-09-07T16:19:47.585Z,2.80
2022-09-07T16:24:49.965Z,4.43
2022-09-07T16:34:54.193Z,4.60
2022-09-07T16:39:56.443Z,4.65
2022-09-07T16:46:02.506Z,3.72
2022-09-07T16:50:20.957Z,3.40
2022-09-07T16:55:23.073Z,3.65
2022-09-07T17:00:25.234Z,3.67
2022-09-07T17:05:27.378Z,5.68
2022-09-07T17:10:29.502Z,5.70
2022-09-07T17:15:35.574Z,4.30
2022-09-07T17:20:37.822Z,3.80
2022-09-07T17:25:39.976Z,4.03
2022-09-07T17:30:42.328Z,5.15
2022-09-07T17:35:44.459Z,6.63
2022-09-07T17:40:46.785Z,7.20
2022-09-07T17:45:49.046Z,6.32
2022-09-07T17:51:00.492Z,5.28
2022-09-07T17:56:04.337Z,5.05
2022-09-07T18:01:10.470Z,4.30
2022-09-07T18:06:13.400Z,3.85
2022-09-07T18:16:39.117Z,4.15
2022-09-07T18:21:43.147Z,4.07
2022-09-07T18:26:51.034Z,4.25
2022-09-07T18:31:54.218Z,4.30
2022-09-07T18:36:56.531Z,5.18
2022-09-07T18:41:58.791Z,3.55
2022-09-07T18:47:01.119Z,4.03
2022-09-07T18:57:26.076Z,4.50
2022-09-07T19:02:28.283Z,4.18
2022-09-07T19:07:30.523Z,4.53
2022-09-07T19:12:32.740Z,4.60
2022-09-07T19:17:35.001Z,4.77
2022-09-07T19:22:37.214Z,5.77
2022-09-07T19:27:39.390Z,5.37
2022-09-07T19:32:41.514Z,6.73
2022-09-07T19:37:43.631Z,10.33
2022-09-07T19:42:45.893Z,11.70
2022-09-07T19:47:47.995Z,11.83
2022-09-07T19:52:50.217Z,10.57
2022-09-07T19:57:52.510Z,11.20
2022-09-07T20:02:54.669Z,10.07
2022-09-07T20:07:57.661Z,10.60
2022-09-07T20:18:01.712Z,6.93
2022-09-07T20:23:03.828Z,8.30
2022-09-07T20:28:06.048Z,9.10
2022-09-07T20:33:08.176Z,8.53
2022-09-07T20:38:10.896Z,9.80
2022-09-07T20:43:13.134Z,8.48
2022-09-07T20:48:15.803Z,7.43
2022-09-07T20:53:17.935Z,9.10
2022-09-07T20:58:20.023Z,9.97
2022-09-07T21:03:22.633Z,10.70
2022-09-07T21:08:24.775Z,9.60
2022-09-07T21:13:26.923Z,11.07
2022-09-07T21:18:29.165Z,12.27
2022-09-07T21:23:33.351Z,13.77
2022-09-07T21:28:35.522Z,18.58
2022-09-07T21:33:37.711Z,18.65
2022-09-07T21:38:41.485Z,17.17
2022-09-07T21:43:43.620Z,16.50
2022-09-07T21:48:46.251Z,18.80
2022-09-07T21:54:00.939Z,21.23
2022-09-07T21:59:03.069Z,23.40
2022-09-07T22:04:05.537Z,28.25
2022-09-07T22:09:07.765Z,26.13
2022-09-07T22:14:11.670Z,34.30
2022-09-07T22:19:13.793Z,27.83
2022-09-07T22:24:16.668Z,29.92
2022-09-07T22:29:18.796Z,29.70
2022-09-07T22:34:20.903Z,28.38
2022-09-07T22:39:23.051Z,27.27
2022-09-07T22:44:25.190Z,31.60
2022-09-07T22:49:27.350Z,29.13
2022-09-07T22:54:29.484Z,34.78
2022-09-07T22:59:31.643Z,33.28
2022-09-07T23:04:33.859Z,35.38
2022-09-07T23:09:35.990Z,35.13
2022-09-07T23:14:38.107Z,30.17
2022-09-07T23:19:40.292Z,35.38
2022-09-07T23:24:42.395Z,35.65
2022-09-07T23:29:44.523Z,39.47
2022-09-07T23:34:46.644Z,39.08
2022-09-07T23:39:48.813Z,38.77
2022-09-07T23:44:51.021Z,41.27
2022-09-07T23:49:53.120Z,41.90
2022-09-07T23:54:55.364Z,40.88
2022-09-07T23:59:57.627Z,44.60
